»·PEaware :: N20791 NV11-KTOA

N20791 :: NV11-KTOA

FLIGHT INFORMATION

Flight Status: Arrived
Operator: Privately registered:
United States
More flights under this callsign
Pilot: Russell T. (852)
Aircraft: CESSNA 182 SKYLANE
(C182)
More flights by this aircraft type
Origin: NV11 Yucca Airstrip
United States
Destination: KTOA Zamperini
United States
More flights between these airports :: More routes between these airports
Route: HIDEN WHIGG HEC GAREY KAYOH SLI
File this flight plan on PilotEdge
Remarks: alpha
Altitude:
(Current/Filed)
10,500ft
Speed:
(Current/Filed)
130kts
Departed: 19-Nov-17 06:08 PM
Arrived: 19-Nov-17 08:09 PM
Distance/Time
Traveled:
220nm/2:01
Distance/Time
To Go:
Arrived

Flight Plot

Page will automatically refresh every two minutes.

Flight plan parsing failed; only flown route is shown


Map Options




Map Legend


Flown Route
Filed Route
Departure Airport
Arrival Airport
Navaid (VOR, NDB)
Fix

Horizontal Profiles

Position Reports

Time Latitude Longitude Heading Altitude Ground
Speed
19-Nov-17 18:09 36.935081 -116.031290 333 3922ft 0kts
19-Nov-17 18:10 36.935082 -116.031290 333 3922ft 0kts
19-Nov-17 18:11 36.935082 -116.031291 333 3922ft 0kts
19-Nov-17 18:12 36.935083 -116.031291 333 3922ft 0kts
19-Nov-17 18:13 36.936885 -116.032439 333 3922ft 45kts
19-Nov-17 18:14 36.956104 -116.044285 340 4432ft 81kts
19-Nov-17 18:15 36.960611 -116.060849 157 5052ft 95kts
19-Nov-17 18:16 36.941196 -116.046162 164 5469ft 106kts
19-Nov-17 18:17 36.913194 -116.038277 194 5990ft 113kts
19-Nov-17 18:18 36.881368 -116.041894 178 6503ft 116kts
19-Nov-17 18:19 36.854153 -116.041053 162 7395ft 85kts
19-Nov-17 18:20 36.830994 -116.040054 160 8092ft 78kts
19-Nov-17 18:21 36.806268 -116.039010 166 8538ft 104kts
19-Nov-17 18:22 36.773326 -116.037914 169 8835ft 128kts
19-Nov-17 18:23 36.739225 -116.036763 168 9478ft 111kts
19-Nov-17 18:24 36.711384 -116.035599 164 10174ft 94kts
19-Nov-17 18:25 36.683655 -116.034457 169 10628ft 105kts
19-Nov-17 18:26 36.645969 -116.033162 172 10492ft 150kts
19-Nov-17 18:27 36.603316 -116.031639 172 10503ft 154kts
19-Nov-17 18:28 36.560075 -116.030026 172 10499ft 156kts
19-Nov-17 18:29 36.513513 -116.028507 173 10488ft 167kts
19-Nov-17 18:30 36.474597 -116.026872 172 10498ft 158kts
19-Nov-17 18:31 36.430941 -116.025179 171 10497ft 155kts
19-Nov-17 18:32 36.389045 -116.022252 168 10500ft 148kts
19-Nov-17 18:33 36.347739 -116.021155 173 10502ft 148kts
19-Nov-17 18:34 36.306554 -116.020118 171 10500ft 148kts
19-Nov-17 18:35 36.265272 -116.018659 172 10500ft 148kts
19-Nov-17 18:36 36.224176 -116.016795 168 10499ft 147kts
19-Nov-17 18:37 36.183776 -116.014435 169 10503ft 143kts
19-Nov-17 18:38 36.142832 -116.013105 175 10508ft 151kts
19-Nov-17 18:39 36.100307 -116.012630 172 10502ft 154kts
19-Nov-17 18:40 36.057434 -116.011152 172 10500ft 154kts
19-Nov-17 18:41 36.017700 -116.000075 133 10502ft 141kts
19-Nov-17 18:42 35.986296 -115.970393 133 10502ft 142kts
19-Nov-17 18:43 35.954677 -115.940604 133 10500ft 142kts
19-Nov-17 18:44 35.923118 -115.910948 133 10500ft 142kts
19-Nov-17 18:45 35.891535 -115.881330 133 10500ft 142kts
19-Nov-17 18:46 35.859847 -115.851611 133 10500ft 142kts
19-Nov-17 18:47 35.828256 -115.822032 133 10500ft 142kts
19-Nov-17 18:48 35.796653 -115.792449 133 10500ft 142kts
19-Nov-17 18:49 35.764912 -115.762798 133 10500ft 142kts
19-Nov-17 18:50 35.733284 -115.733280 133 10500ft 143kts
19-Nov-17 18:51 35.701529 -115.703663 133 10501ft 142kts
19-Nov-17 18:52 35.669967 -115.674061 133 10500ft 142kts
19-Nov-17 18:53 35.638213 -115.644690 134 10500ft 143kts
19-Nov-17 18:54 35.606638 -115.614852 133 10500ft 142kts
19-Nov-17 18:55 35.574877 -115.585481 134 10500ft 143kts
19-Nov-17 18:56 35.543071 -115.556185 134 10500ft 143kts
19-Nov-17 18:57 35.508940 -115.531193 177 10482ft 156kts
19-Nov-17 18:58 35.476564 -115.565529 229 10504ft 158kts
19-Nov-17 18:59 35.446688 -115.605659 229 10501ft 159kts
19-Nov-17 19:00 35.416777 -115.645638 229 10499ft 159kts
19-Nov-17 19:01 35.386830 -115.685581 229 10500ft 159kts
19-Nov-17 19:02 35.356784 -115.725618 228 10500ft 159kts
19-Nov-17 19:03 35.326824 -115.765495 228 10501ft 159kts
19-Nov-17 19:04 35.296751 -115.805475 228 10500ft 159kts
19-Nov-17 19:05 35.266754 -115.845321 228 10500ft 159kts
19-Nov-17 19:06 35.236757 -115.885125 228 10500ft 159kts
19-Nov-17 19:07 35.206623 -115.925019 228 10500ft 159kts
19-Nov-17 19:08 35.176584 -115.964763 228 10500ft 159kts
19-Nov-17 19:09 35.146526 -116.004487 228 10500ft 159kts
19-Nov-17 19:10 35.116355 -116.044316 228 10500ft 159kts
19-Nov-17 19:11 35.086250 -116.084010 228 10500ft 159kts
19-Nov-17 19:12 35.056047 -116.123788 228 10500ft 159kts
19-Nov-17 19:13 35.024015 -116.166013 228 10491ft 171kts
19-Nov-17 19:14 34.992828 -116.206913 228 10497ft 161kts
19-Nov-17 19:15 34.962451 -116.246763 228 10500ft 159kts
19-Nov-17 19:16 34.932271 -116.286319 228 10501ft 159kts
19-Nov-17 19:17 34.902059 -116.325871 228 10500ft 159kts
19-Nov-17 19:18 34.871738 -116.365521 228 10500ft 159kts
19-Nov-17 19:19 34.841506 -116.405005 228 10500ft 159kts
19-Nov-17 19:20 34.811185 -116.444562 228 10499ft 159kts
19-Nov-17 19:21 34.780425 -116.483318 225 10500ft 159kts
19-Nov-17 19:22 34.749207 -116.521608 226 10500ft 159kts
19-Nov-17 19:23 34.717973 -116.560109 226 10500ft 159kts
19-Nov-17 19:24 34.686855 -116.598496 226 10500ft 159kts
19-Nov-17 19:25 34.655585 -116.636944 226 10500ft 159kts
19-Nov-17 19:26 34.624387 -116.675237 226 10500ft 159kts
19-Nov-17 19:27 34.593171 -116.713500 226 10500ft 159kts
19-Nov-17 19:28 34.561806 -116.751863 226 10501ft 159kts
19-Nov-17 19:29 34.528744 -116.792381 226 10485ft 171kts
19-Nov-17 19:30 34.496422 -116.831786 226 10493ft 161kts
19-Nov-17 19:31 34.464837 -116.870215 226 10499ft 159kts
19-Nov-17 19:32 34.433582 -116.908425 226 10500ft 159kts
19-Nov-17 19:33 34.402174 -116.946724 226 10500ft 159kts
19-Nov-17 19:34 34.370827 -116.984816 226 10500ft 159kts
19-Nov-17 19:35 34.339475 -117.022892 226 10500ft 160kts
19-Nov-17 19:36 34.308000 -117.061077 226 10500ft 160kts
19-Nov-17 19:37 34.276394 -117.098842 224 10500ft 159kts
19-Nov-17 19:38 34.244873 -117.136615 225 10499ft 159kts
19-Nov-17 19:39 34.213358 -117.174612 225 10500ft 159kts
19-Nov-17 19:40 34.182121 -117.212705 225 10500ft 159kts
19-Nov-17 19:41 34.148591 -117.247941 217 10507ft 159kts
19-Nov-17 19:42 34.110587 -117.283415 216 9816ft 185kts
19-Nov-17 19:43 34.069377 -117.321853 214 8920ft 188kts
19-Nov-17 19:44 34.029540 -117.359036 213 8506ft 161kts
19-Nov-17 19:45 33.998545 -117.387906 212 8495ft 131kts
19-Nov-17 19:46 33.969983 -117.414372 211 8499ft 128kts
19-Nov-17 19:47 33.941970 -117.440346 212 8481ft 124kts
19-Nov-17 19:48 33.914584 -117.465684 211 8509ft 127kts
19-Nov-17 19:49 33.886306 -117.491887 212 8500ft 128kts
19-Nov-17 19:50 33.858062 -117.518030 212 8500ft 128kts
19-Nov-17 19:51 33.829814 -117.544118 211 8500ft 128kts
19-Nov-17 19:52 33.801456 -117.570240 211 8500ft 128kts
19-Nov-17 19:53 33.779826 -117.601754 276 8495ft 126kts
19-Nov-17 19:54 33.780644 -117.649473 273 7739ft 149kts
19-Nov-17 19:55 33.781069 -117.699818 271 6888ft 155kts
19-Nov-17 19:56 33.781466 -117.752277 272 5694ft 154kts
19-Nov-17 19:57 33.781803 -117.802111 272 4492ft 143kts
19-Nov-17 19:58 33.782051 -117.841618 273 4498ft 107kts
19-Nov-17 19:59 33.782284 -117.875839 273 4500ft 99kts
19-Nov-17 20:00 33.782473 -117.909106 273 4500ft 99kts
19-Nov-17 20:01 33.782654 -117.942195 273 4500ft 99kts
19-Nov-17 20:02 33.782834 -117.975404 273 4500ft 99kts
19-Nov-17 20:03 33.783018 -118.009280 272 4352ft 110kts
19-Nov-17 20:04 33.783190 -118.047594 271 3883ft 116kts
19-Nov-17 20:05 33.785361 -118.086792 275 3203ft 121kts
19-Nov-17 20:06 33.788368 -118.126986 274 2315ft 120kts
19-Nov-17 20:07 33.790601 -118.158784 267 2440ft 56kts
19-Nov-17 20:08 33.782479 -118.187619 238 2618ft 96kts
19-Nov-17 20:09 33.770560 -118.217317 253 2858ft 65kts
19-Nov-17 20:10 33.763115 -118.248304 256 2706ft 105kts
19-Nov-17 20:11 33.766116 -118.283384 303 1900ft 90kts
19-Nov-17 20:12 33.781025 -118.305664 309 836ft 78kts
19-Nov-17 20:13 33.794279 -118.325113 311 371ft 71kts
19-Nov-17 20:14 33.804993 -118.341005 308 106ft 34kts
19-Nov-17 20:15 33.805837 -118.343650 288 106ft 10kts
19-Nov-17 20:16 33.805898 -118.345346 224 106ft 0kts
19-Nov-17 20:17 33.805894 -118.345350 224 106ft 0kts
19-Nov-17 20:18 33.804281 -118.345433 126 106ft 12kts
19-Nov-17 20:19 33.801878 -118.343082 242 106ft 0kts
19-Nov-17 20:20 33.801877 -118.343082 242 106ft 0kts
19-Nov-17 20:21 33.801877 -118.343082 242 106ft 0kts

Navigation Log

Ident Type
Flight plan parsing failed, navigation log unavailable